Time;durP1;ratioP1;P1;durP2;ratioP2;P2;SDS_P1;SDS_P2;PMS_P1;PMS_P2;Temp;Humidity;BMP_temperature;BMP_pressure;BME280_temperature;BME280_humidity;BME280_pressure;Samples;Min_cycle;Max_cycle;Signal;HPM_P1;HPM_P2
2021/07/31 00:01:12;;;;;;;8.20;3.80;;;15.10;99.90;;;;;;5023938;28;20054;-56
2021/07/31 00:03:38;;;;;;;8.00;3.25;;;15.10;99.90;;;;;;5024454;28;20060;-56
2021/07/31 00:06:06;;;;;;;6.75;3.33;;;15.00;99.90;;;;;;5009287;28;20064;-56
2021/07/31 00:08:33;;;;;;;8.27;3.00;;;15.00;99.90;;;;;;5017757;28;20780;-57
2021/07/31 00:10:59;;;;;;;7.95;3.80;;;15.00;99.90;;;;;;5025241;28;20418;-56
2021/07/31 00:13:29;;;;;;;9.02;4.68;;;15.00;99.90;;;;;;5025634;28;20045;-48
2021/07/31 00:15:58;;;;;;;9.13;3.65;;;15.00;99.90;;;;;;5027910;28;20398;-57
2021/07/31 00:18:24;;;;;;;9.55;4.05;;;15.00;99.90;;;;;;5026824;28;20524;-55
2021/07/31 00:20:53;;;;;;;10.38;4.00;;;15.00;99.90;;;;;;5028341;28;20054;-57
2021/07/31 00:23:19;;;;;;;8.57;3.83;;;15.00;99.90;;;;;;5026153;28;20501;-57
2021/07/31 00:25:46;;;;;;;6.75;3.60;;;15.00;99.90;;;;;;5026074;28;20076;-57
2021/07/31 00:28:14;;;;;;;11.80;4.30;;;15.00;99.90;;;;;;5026664;28;20092;-55
2021/07/31 00:30:40;;;;;;;8.32;4.13;;;15.00;99.90;;;;;;5026739;28;20156;-56
2021/07/31 00:33:10;;;;;;;7.45;3.88;;;15.00;99.90;;;;;;5018949;28;20057;-50
2021/07/31 00:35:36;;;;;;;9.32;4.82;;;15.00;99.90;;;;;;5025763;28;20144;-56
2021/07/31 00:38:05;;;;;;;7.72;4.28;;;15.00;99.90;;;;;;5032083;28;20534;-56
2021/07/31 00:40:35;;;;;;;9.13;4.80;;;15.00;99.90;;;;;;5027176;28;20084;-57
2021/07/31 00:43:07;;;;;;;7.90;4.80;;;15.00;99.90;;;;;;5028010;28;20553;-59
2021/07/31 00:45:34;;;;;;;11.15;5.18;;;15.00;99.90;;;;;;5026214;28;20140;-54
2021/07/31 00:48:04;;;;;;;9.68;4.55;;;15.00;99.90;;;;;;5025508;28;20078;-57
2021/07/31 00:50:33;;;;;;;12.13;4.80;;;15.10;99.90;;;;;;5028833;28;20060;-55
2021/07/31 00:53:00;;;;;;;8.80;5.10;;;15.10;99.90;;;;;;5030117;28;20127;-56
2021/07/31 00:55:29;;;;;;;10.77;5.18;;;15.10;99.90;;;;;;5028958;28;20104;-57
2021/07/31 00:57:57;;;;;;;11.63;5.28;;;15.20;99.90;;;;;;5047802;28;20041;-57
2021/07/31 01:00:37;;;;;;;14.77;6.45;;;15.20;99.90;;;;;;5030928;28;20080;-57
2021/07/31 01:03:06;;;;;;;8.20;5.38;;;15.20;99.90;;;;;;5029470;28;20119;-57
2021/07/31 01:05:34;;;;;;;12.07;5.72;;;15.20;99.90;;;;;;5034771;28;20196;-56
2021/07/31 01:08:04;;;;;;;12.40;5.53;;;15.20;99.90;;;;;;5045052;28;20159;-57
2021/07/31 01:10:32;;;;;;;13.50;6.18;;;15.30;99.90;;;;;;5043948;28;20058;-57
2021/07/31 01:13:01;;;;;;;10.73;5.93;;;15.20;99.90;;;;;;5030055;28;20046;-56
2021/07/31 01:15:30;;;;;;;13.70;5.37;;;15.30;99.90;;;;;;5027590;28;20096;-53
2021/07/31 01:17:57;;;;;;;9.48;5.75;;;15.30;99.90;;;;;;5016790;28;20073;-56
2021/07/31 01:20:27;;;;;;;9.90;5.68;;;15.30;99.90;;;;;;5032923;28;20049;-56
2021/07/31 01:23:03;;;;;;;14.45;5.75;;;15.30;99.90;;;;;;5027054;28;20060;-52
2021/07/31 01:25:32;;;;;;;;;;;15.30;99.90;;;;;;5030072;28;20052;-55
2021/07/31 01:28:05;;;;;;;11.35;6.20;;;15.30;99.90;;;;;;5029587;28;20413;-56
2021/07/31 01:30:32;;;;;;;13.15;7.00;;;15.30;99.90;;;;;;5044639;28;20053;-56
2021/07/31 01:33:01;;;;;;;12.38;6.43;;;15.20;99.90;;;;;;5033504;28;20502;-53
2021/07/31 01:35:28;;;;;;;12.88;6.97;;;15.10;99.90;;;;;;5042234;28;20045;-57
2021/07/31 01:37:58;;;;;;;15.50;6.88;;;15.10;99.90;;;;;;5045001;28;20053;-55
2021/07/31 01:40:25;;;;;;;14.85;7.45;;;15.00;99.90;;;;;;5028401;28;20132;-55
2021/07/31 01:42:56;;;;;;;14.00;7.55;;;15.00;99.90;;;;;;5022747;28;20056;-50
2021/07/31 01:45:26;;;;;;;14.65;7.70;;;15.00;99.90;;;;;;5023157;28;20049;-57
2021/07/31 01:47:53;;;;;;;13.82;7.30;;;15.00;99.90;;;;;;5028136;28;20418;-56
2021/07/31 01:50:25;;;;;;;11.45;7.72;;;15.00;99.90;;;;;;5044711;28;20064;-55
2021/07/31 01:52:57;;;;;;;13.40;8.13;;;15.00;99.90;;;;;;5029178;28;20052;-56
2021/07/31 01:55:26;;;;;;;11.20;7.07;;;15.00;99.90;;;;;;5028779;28;20394;-55
2021/07/31 01:57:59;;;;;;;13.70;8.60;;;15.00;99.90;;;;;;5028967;28;20075;-56
2021/07/31 02:00:45;;;;;;;15.65;8.32;;;15.00;99.90;;;;;;5045857;28;20053;-54
2021/07/31 02:03:30;;;;;;;12.77;7.85;;;15.00;99.90;;;;;;5040239;28;20053;-57
2021/07/31 02:06:32;;;;;;;12.68;7.70;;;15.00;99.90;;;;;;5013094;28;20136;-57
2021/07/31 02:08:59;;;;;;;13.93;8.60;;;15.00;99.90;;;;;;5029086;28;20448;-56
2021/07/31 02:11:26;;;;;;;14.38;7.70;;;15.00;99.90;;;;;;5027839;28;20053;-56
2021/07/31 02:14:08;;;;;;;17.10;8.68;;;15.00;99.90;;;;;;5028977;28;20140;-57
2021/07/31 02:16:43;;;;;;;12.50;7.75;;;15.00;99.90;;;;;;5043400;28;20084;-54
2021/07/31 02:19:19;;;;;;;14.63;8.43;;;15.10;99.90;;;;;;5043083;28;20053;-55
2021/07/31 02:22:04;;;;;;;12.48;7.85;;;15.10;99.90;;;;;;5042710;28;20076;-55
2021/07/31 02:24:56;;;;;;;10.90;7.65;;;15.10;99.90;;;;;;5028838;28;20057;-53
2021/07/31 02:27:43;;;;;;;13.35;9.48;;;15.10;99.90;;;;;;5022023;28;20102;-54
2021/07/31 02:30:11;;;;;;;13.45;9.23;;;15.10;99.90;;;;;;5027136;28;20132;-57
2021/07/31 02:32:45;;;;;;;14.52;8.75;;;15.10;99.90;;;;;;5038152;28;20081;-56
2021/07/31 02:35:15;;;;;;;13.48;8.93;;;15.10;99.90;;;;;;5017837;28;20053;-57
2021/07/31 02:38:07;;;;;;;16.77;9.10;;;15.10;99.90;;;;;;4966468;28;20047;-54
2021/07/31 02:40:37;;;;;;;13.70;8.90;;;15.10;99.90;;;;;;4950387;28;20094;-56
2021/07/31 02:43:05;;;;;;;12.40;9.73;;;15.20;99.90;;;;;;4953341;28;20086;-56
2021/07/31 02:45:31;;;;;;;17.10;9.80;;;15.10;99.90;;;;;;4956307;28;20561;-57
2021/07/31 02:48:04;;;;;;;16.33;10.40;;;15.10;99.90;;;;;;4982098;28;20053;-57
2021/07/31 02:50:33;;;;;;;15.93;9.95;;;15.10;99.90;;;;;;4962612;28;20047;-56
2021/07/31 02:53:15;;;;;;;16.75;10.18;;;15.00;99.90;;;;;;4958678;28;20046;-56
2021/07/31 02:55:47;;;;;;;20.52;11.68;;;15.10;99.90;;;;;;4964740;28;20443;-54
2021/07/31 02:58:20;;;;;;;14.05;11.38;;;15.10;99.90;;;;;;4962118;28;20498;-56
2021/07/31 03:00:51;;;;;;;17.52;10.75;;;15.00;99.90;;;;;;4949305;28;20065;-57
2021/07/31 03:03:20;;;;;;;15.13;11.88;;;15.00;99.90;;;;;;4948619;28;20555;-57
2021/07/31 03:05:57;;;;;;;15.80;11.82;;;15.00;99.90;;;;;;4963784;28;20062;-56
2021/07/31 03:08:28;;;;;;;14.55;11.18;;;15.00;99.90;;;;;;4968033;28;20083;-57
2021/07/31 03:11:06;;;;;;;15.75;11.05;;;15.00;99.90;;;;;;4966130;28;20050;-55
2021/07/31 03:13:37;;;;;;;18.50;12.30;;;15.00;99.90;;;;;;4964756;28;20727;-56
2021/07/31 03:16:06;;;;;;;16.85;11.88;;;15.00;99.90;;;;;;5020408;28;20057;-54
2021/07/31 03:18:34;;;;;;;17.30;11.43;;;15.00;99.90;;;;;;5026688;28;20092;-55
2021/07/31 03:21:04;;;;;;;;;;;15.10;99.90;;;;;;5027077;28;20057;-57
2021/07/31 03:23:46;;;;;;;18.77;13.07;;;15.10;99.90;;;;;;5024398;28;19936;-57
2021/07/31 03:26:18;;;;;;;16.52;12.35;;;15.20;99.90;;;;;;5045529;28;20045;-57
2021/07/31 03:28:49;;;;;;;18.83;11.23;;;15.20;99.90;;;;;;5030616;28;20080;-55
2021/07/31 03:31:19;;;;;;;15.85;12.73;;;15.20;99.90;;;;;;5049211;28;20042;-48
2021/07/31 03:33:53;;;;;;;19.77;11.98;;;15.20;99.90;;;;;;5042121;28;20076;-57
2021/07/31 03:36:23;;;;;;;18.42;11.15;;;15.10;99.90;;;;;;5030195;28;20053;-57
2021/07/31 03:39:05;;;;;;;15.20;12.05;;;15.10;99.90;;;;;;5044140;28;20046;-55
2021/07/31 03:41:38;;;;;;;16.13;11.88;;;15.10;99.90;;;;;;5027485;28;20045;-56
2021/07/31 03:44:13;;;;;;;15.27;12.43;;;15.10;99.90;;;;;;5021356;28;20103;-58
2021/07/31 03:46:44;;;;;;;16.77;12.55;;;15.20;99.90;;;;;;5029823;28;20038;-58
2021/07/31 03:49:18;;;;;;;16.70;12.40;;;15.20;99.90;;;;;;5022645;28;20054;-57
2021/07/31 03:51:53;;;;;;;13.88;11.25;;;15.20;99.90;;;;;;5015430;28;20202;-55
2021/07/31 03:54:24;;;;;;;15.63;12.30;;;15.20;99.90;;;;;;5025434;28;20057;-57
2021/07/31 03:57:14;;;;;;;17.60;12.02;;;15.20;99.90;;;;;;5025109;28;20075;-57
2021/07/31 03:59:49;;;;;;;17.55;11.30;;;15.30;99.90;;;;;;5029949;28;20045;-58
2021/07/31 04:02:19;;;;;;;13.15;9.88;;;15.20;99.90;;;;;;5026863;28;20161;-53
2021/07/31 04:04:51;;;;;;;14.90;10.60;;;15.30;99.90;;;;;;5041431;28;20057;-54
2021/07/31 04:07:18;;;;;;;16.25;12.27;;;15.30;99.90;;;;;;5026056;28;20065;-57
2021/07/31 04:10:05;;;;;;;15.70;13.07;;;15.20;99.90;;;;;;5027325;28;20049;-59
2021/07/31 04:12:58;;;;;;;15.90;13.32;;;15.00;99.90;;;;;;5044337;28;20207;-58
2021/07/31 04:15:31;;;;;;;16.77;13.45;;;15.00;99.90;;;;;;5040289;28;20163;-57
2021/07/31 04:18:01;;;;;;;18.40;13.32;;;15.00;99.90;;;;;;5026391;28;20106;-57
2021/07/31 04:20:30;;;;;;;15.30;12.57;;;15.00;99.90;;;;;;5028108;28;20041;-58
2021/07/31 04:22:57;;;;;;;18.05;12.70;;;15.00;99.90;;;;;;5028200;28;20077;-56
2021/07/31 04:25:41;;;;;;;18.02;12.63;;;15.00;99.90;;;;;;5053394;28;20044;-47
2021/07/31 04:28:07;;;;;;;17.92;12.75;;;15.00;99.90;;;;;;5051781;28;20045;-55
2021/07/31 04:30:37;;;;;;;17.58;12.60;;;15.00;99.90;;;;;;5048588;28;20643;-55
2021/07/31 04:33:05;;;;;;;22.38;13.65;;;15.10;99.90;;;;;;5051251;28;20045;-52
2021/07/31 04:35:59;;;;;;;16.58;13.30;;;15.10;99.90;;;;;;5048018;28;20060;-55
2021/07/31 04:38:28;;;;;;;14.27;12.05;;;15.00;99.90;;;;;;5048921;28;20041;-52
2021/07/31 04:40:57;;;;;;;17.48;11.73;;;15.10;99.90;;;;;;5047211;28;20045;-56
2021/07/31 04:43:26;;;;;;;14.20;11.48;;;15.10;99.90;;;;;;5047258;28;20060;-56
2021/07/31 04:45:53;;;;;;;16.02;9.75;;;15.20;99.90;;;;;;5044751;28;20053;-56
2021/07/31 04:48:19;;;;;;;15.50;10.18;;;15.20;99.90;;;;;;5049164;28;20255;-54
2021/07/31 04:50:47;;;;;;;12.35;9.00;;;15.20;99.90;;;;;;5028967;28;20045;-45
2021/07/31 04:53:13;;;;;;;13.77;9.82;;;15.30;99.90;;;;;;5018246;28;20053;-55
2021/07/31 04:55:42;;;;;;;13.95;9.23;;;15.30;99.90;;;;;;5031571;28;20048;-55
2021/07/31 04:58:11;;;;;;;13.68;8.98;;;15.30;99.90;;;;;;5027915;28;20069;-57
2021/07/31 05:00:37;;;;;;;14.60;8.55;;;15.30;99.90;;;;;;5035183;28;20069;-57
2021/07/31 05:03:04;;;;;;;12.05;8.90;;;15.40;99.90;;;;;;5028880;28;20037;-58
2021/07/31 05:05:36;;;;;;;17.38;10.48;;;15.40;99.90;;;;;;5030551;28;20095;-53
2021/07/31 05:08:02;;;;;;;17.00;9.10;;;15.40;99.90;;;;;;5030981;28;20077;-57
2021/07/31 05:10:29;;;;;;;13.07;9.18;;;15.40;99.90;;;;;;5030545;28;20487;-57
2021/07/31 05:12:55;;;;;;;10.88;8.32;;;15.40;99.90;;;;;;5031656;28;20140;-56
2021/07/31 05:15:21;;;;;;;16.02;8.07;;;15.50;99.90;;;;;;5029742;28;20111;-53
2021/07/31 05:17:50;;;;;;;14.07;7.80;;;15.50;99.90;;;;;;5028379;28;20104;-58
2021/07/31 05:20:16;;;;;;;14.52;7.25;;;15.40;99.90;;;;;;5029808;28;20045;-53
2021/07/31 05:22:44;;;;;;;14.75;8.48;;;15.40;99.90;;;;;;5029918;28;20053;-56
2021/07/31 05:25:13;;;;;;;15.23;8.82;;;15.40;99.90;;;;;;5034107;28;20041;-55
2021/07/31 05:27:42;;;;;;;17.77;8.25;;;15.30;99.90;;;;;;5035772;28;20044;-56
2021/07/31 05:30:09;;;;;;;17.23;8.18;;;15.20;99.90;;;;;;5030369;28;20132;-57
2021/07/31 05:32:35;;;;;;;12.57;7.78;;;15.20;99.90;;;;;;5029402;28;20045;-53
2021/07/31 05:35:01;;;;;;;16.20;8.63;;;15.10;99.90;;;;;;5029910;28;20134;-53
2021/07/31 05:37:31;;;;;;;12.55;7.88;;;15.20;99.90;;;;;;5022224;28;20045;-55
2021/07/31 05:39:59;;;;;;;15.30;8.23;;;15.20;99.90;;;;;;5035264;28;20417;-57
2021/07/31 05:42:28;;;;;;;16.58;7.90;;;15.20;99.90;;;;;;5029317;28;20050;-49
2021/07/31 05:45:01;;;;;;;18.10;8.57;;;15.20;99.90;;;;;;5025711;28;20055;-47
2021/07/31 05:47:29;;;;;;;24.48;10.02;;;15.10;99.90;;;;;;5029758;28;20072;-48
2021/07/31 05:49:59;;;;;;;20.25;10.45;;;15.00;99.90;;;;;;5028575;28;20049;-46
2021/07/31 05:52:28;;;;;;;15.80;9.75;;;15.00;99.90;;;;;;5028924;28;20150;-46
2021/07/31 05:54:57;;;;;;;19.63;9.48;;;15.00;99.90;;;;;;5029282;28;20045;-46
2021/07/31 05:57:24;;;;;;;23.90;9.93;;;15.00;99.90;;;;;;5029414;28;20048;-46
2021/07/31 05:59:50;;;;;;;20.25;10.55;;;14.90;99.90;;;;;;5027379;28;20652;-48
2021/07/31 06:02:17;;;;;;;20.00;10.48;;;14.90;99.90;;;;;;5030812;28;20076;-47
2021/07/31 06:04:46;;;;;;;19.83;10.38;;;15.00;99.90;;;;;;5034279;28;20222;-48
2021/07/31 06:07:18;;;;;;;18.40;11.00;;;14.90;99.90;;;;;;5044824;28;20048;-47
2021/07/31 06:09:53;;;;;;;19.52;11.30;;;14.90;99.90;;;;;;5030475;28;20091;-46
2021/07/31 06:12:20;;;;;;;24.42;11.85;;;14.90;99.90;;;;;;5029355;28;20053;-47
2021/07/31 06:14:48;;;;;;;20.45;10.93;;;14.90;99.90;;;;;;5028872;28;20057;-47
2021/07/31 06:17:17;;;;;;;19.48;11.20;;;14.90;99.90;;;;;;5032813;28;20044;-47
2021/07/31 06:19:44;;;;;;;19.48;11.73;;;14.90;99.90;;;;;;5028499;28;20056;-46
2021/07/31 06:22:10;;;;;;;21.17;11.98;;;14.90;99.90;;;;;;5036356;28;20060;-47
2021/07/31 06:24:36;;;;;;;21.15;9.63;;;14.90;99.90;;;;;;5028285;28;20049;-45
2021/07/31 06:27:05;;;;;;;23.80;10.90;;;14.90;99.90;;;;;;5029119;28;20068;-46
2021/07/31 06:29:32;;;;;;;17.00;8.68;;;14.90;99.90;;;;;;5029305;28;20401;-45
2021/07/31 06:31:58;;;;;;;51.50;36.08;;;14.90;99.90;;;;;;5027597;28;20076;-47
2021/07/31 06:34:27;;;;;;;25.77;17.63;;;15.00;99.90;;;;;;5027837;28;20052;-48
2021/07/31 06:36:53;;;;;;;21.60;12.07;;;15.10;99.90;;;;;;5027209;28;20088;-50
2021/07/31 06:39:19;;;;;;;16.58;10.15;;;15.10;99.90;;;;;;5027093;28;20049;-47
2021/07/31 06:41:46;;;;;;;16.75;10.48;;;15.20;99.90;;;;;;5031180;28;20087;-47
2021/07/31 06:44:12;;;;;;;28.45;13.40;;;15.20;99.90;;;;;;5041428;28;20123;-47
2021/07/31 06:46:40;;;;;;;18.85;10.20;;;15.30;99.90;;;;;;5033475;28;20053;-48
2021/07/31 06:49:10;;;;;;;19.27;10.65;;;15.50;99.90;;;;;;5026713;28;20057;-46
2021/07/31 06:51:39;;;;;;;17.42;9.93;;;15.60;99.90;;;;;;5028046;28;20075;-48
2021/07/31 06:54:05;;;;;;;30.23;19.52;;;15.60;99.90;;;;;;5031508;28;20049;-45
2021/07/31 06:56:35;;;;;;;32.90;23.42;;;15.70;99.90;;;;;;5030080;28;20045;-46
2021/07/31 06:59:03;;;;;;;17.48;10.27;;;15.80;99.90;;;;;;5035097;28;20524;-48
2021/07/31 07:01:29;;;;;;;21.95;12.25;;;15.90;99.90;;;;;;5026775;28;20061;-47
2021/07/31 07:03:55;;;;;;;17.02;8.65;;;16.10;99.90;;;;;;5022758;28;20573;-46
2021/07/31 07:06:21;;;;;;;13.25;7.82;;;16.10;99.90;;;;;;5008651;28;20132;-48
2021/07/31 07:08:47;;;;;;;11.45;6.70;;;16.20;99.90;;;;;;5013476;28;20050;-48
2021/07/31 07:11:15;;;;;;;11.60;6.70;;;16.10;99.90;;;;;;5008366;28;20211;-47
2021/07/31 07:13:42;;;;;;;11.27;6.38;;;16.10;99.90;;;;;;5022914;28;20690;-46
2021/07/31 07:16:08;;;;;;;14.73;7.40;;;16.20;99.90;;;;;;5029453;28;20064;-48
2021/07/31 07:18:34;;;;;;;13.90;7.47;;;16.40;99.90;;;;;;5031628;28;20410;-49
2021/07/31 07:21:09;;;;;;;12.43;6.45;;;16.40;99.90;;;;;;5027399;28;20049;-46
2021/07/31 07:23:36;;;;;;;13.25;7.07;;;16.50;99.90;;;;;;5017404;28;20049;-46
2021/07/31 07:26:03;;;;;;;14.35;8.85;;;16.50;99.90;;;;;;5028053;28;20049;-48
2021/07/31 07:28:29;;;;;;;14.40;7.68;;;16.50;99.90;;;;;;5027552;28;20053;-46
2021/07/31 07:30:56;;;;;;;15.23;6.38;;;16.50;99.90;;;;;;5027120;28;20100;-45
2021/07/31 07:33:22;;;;;;;13.73;7.63;;;16.30;99.90;;;;;;5026886;28;20536;-44
2021/07/31 07:35:50;;;;;;;15.43;6.30;;;16.30;99.90;;;;;;5028045;28;20049;-44
2021/07/31 07:38:17;;;;;;;12.30;5.13;;;16.20;99.90;;;;;;5027954;28;20057;-46
2021/07/31 07:40:43;;;;;;;19.17;7.00;;;16.20;99.90;;;;;;5027486;28;20098;-46
2021/07/31 07:43:18;;;;;;;18.27;6.43;;;16.20;99.90;;;;;;5026263;28;20532;-45
2021/07/31 07:45:47;;;;;;;20.98;8.27;;;16.20;99.90;;;;;;5028281;28;20148;-49
2021/07/31 07:48:14;;;;;;;22.15;12.45;;;16.20;99.90;;;;;;5027481;28;20077;-46
2021/07/31 07:50:40;;;;;;;21.98;12.88;;;16.30;99.90;;;;;;5030132;28;20033;-46
2021/07/31 07:53:06;;;;;;;15.55;8.77;;;16.30;99.90;;;;;;5029409;28;20045;-47
2021/07/31 07:55:32;;;;;;;16.40;6.32;;;16.10;99.90;;;;;;5027428;28;20053;-46
2021/07/31 07:58:01;;;;;;;15.30;8.48;;;16.10;99.90;;;;;;5028052;28;20084;-45
2021/07/31 08:00:27;;;;;;;14.10;7.50;;;16.00;99.90;;;;;;5029760;28;20045;-48
2021/07/31 08:02:53;;;;;;;15.90;7.90;;;16.10;99.90;;;;;;5032454;28;20053;-46
2021/07/31 08:05:19;;;;;;;18.20;6.95;;;16.30;99.90;;;;;;5032013;28;20049;-45
2021/07/31 08:07:48;;;;;;;15.85;6.70;;;16.40;99.90;;;;;;5031968;28;20056;-46
2021/07/31 08:10:17;;;;;;;15.98;5.60;;;16.60;99.90;;;;;;5031793;28;20060;-46
2021/07/31 08:12:46;;;;;;;14.43;7.15;;;16.70;99.90;;;;;;5031048;28;20046;-45
2021/07/31 08:15:13;;;;;;;21.52;13.63;;;16.80;99.90;;;;;;4992156;28;20405;-44
2021/07/31 08:17:39;;;;;;;19.25;8.63;;;16.80;99.90;;;;;;5045167;28;20045;-45
2021/07/31 08:20:07;;;;;;;16.10;8.40;;;16.80;99.90;;;;;;5033170;28;20045;-44
2021/07/31 08:22:33;;;;;;;15.35;5.25;;;16.90;99.90;;;;;;5034835;28;20048;-46
2021/07/31 08:25:03;;;;;;;16.13;5.05;;;17.20;99.90;;;;;;5031329;28;20555;-48
2021/07/31 08:27:32;;;;;;;15.85;5.45;;;17.50;99.90;;;;;;5024987;28;20053;-44
2021/07/31 08:29:58;;;;;;;14.45;6.13;;;17.70;99.90;;;;;;5032000;28;20140;-45
2021/07/31 08:32:24;;;;;;;14.38;5.15;;;17.80;99.90;;;;;;5031691;28;20127;-47
2021/07/31 08:34:50;;;;;;;13.93;5.25;;;17.60;99.90;;;;;;5042972;28;20456;-45
2021/07/31 08:37:17;;;;;;;12.32;4.25;;;17.50;99.90;;;;;;5031148;28;20084;-45
2021/07/31 08:39:44;;;;;;;13.00;5.60;;;17.30;99.90;;;;;;5034779;28;20558;-47
2021/07/31 08:42:11;;;;;;;70.13;62.45;;;17.10;99.90;;;;;;5032113;28;20073;-47
2021/07/31 08:44:38;;;;;;;14.30;5.50;;;16.90;99.90;;;;;;5027579;28;20115;-45
2021/07/31 08:47:05;;;;;;;12.63;5.40;;;16.70;99.90;;;;;;5031220;28;20056;-44
2021/07/31 08:49:39;;;;;;;14.63;5.53;;;16.60;99.90;;;;;;5031626;28;20045;-44
2021/07/31 08:52:08;;;;;;;11.90;5.20;;;16.60;99.90;;;;;;5034854;28;20580;-45
2021/07/31 08:54:42;;;;;;;15.95;6.00;;;16.70;99.90;;;;;;5029113;28;20149;-45
2021/07/31 08:57:09;;;;;;;16.58;6.03;;;16.80;99.90;;;;;;5030202;28;20053;-44
2021/07/31 08:59:35;;;;;;;11.15;5.05;;;17.00;99.90;;;;;;5029445;28;20046;-45
2021/07/31 09:02:02;;;;;;;11.65;4.05;;;17.20;99.90;;;;;;5013192;28;20065;-44
2021/07/31 09:04:28;;;;;;;12.60;4.57;;;17.40;99.90;;;;;;5033176;28;20410;-43
2021/07/31 09:06:54;;;;;;;13.02;5.05;;;17.40;99.90;;;;;;5032328;28;20043;-45
2021/07/31 09:09:27;;;;;;;10.02;4.00;;;17.40;99.90;;;;;;5030515;28;20063;-44
2021/07/31 09:12:02;;;;;;;13.18;4.47;;;17.10;99.90;;;;;;5048266;28;20049;-44
2021/07/31 09:14:29;;;;;;;11.93;5.40;;;16.90;99.90;;;;;;5037452;28;20482;-43
2021/07/31 09:16:58;;;;;;;13.63;4.88;;;16.80;99.90;;;;;;5029787;28;20090;-45
2021/07/31 09:19:27;;;;;;;13.32;4.93;;;16.90;99.90;;;;;;5029173;28;20402;-45
2021/07/31 09:22:09;;;;;;;15.48;6.55;;;16.90;99.90;;;;;;5045729;28;20127;-43
2021/07/31 09:24:35;;;;;;;12.52;5.30;;;16.80;99.90;;;;;;5029222;28;20073;-43
2021/07/31 09:27:02;;;;;;;16.02;6.43;;;16.60;99.90;;;;;;5029805;28;20409;-43
2021/07/31 09:29:32;;;;;;;13.07;6.50;;;16.60;99.90;;;;;;5030055;28;20505;-43
2021/07/31 09:32:03;;;;;;;15.43;6.75;;;16.60;99.90;;;;;;5029511;28;20061;-43
2021/07/31 09:34:44;;;;;;;12.48;5.70;;;16.70;99.90;;;;;;5036315;28;20045;-43
2021/07/31 09:37:12;;;;;;;15.63;8.20;;;16.70;99.90;;;;;;5028041;28;20084;-43
2021/07/31 09:39:53;;;;;;;18.08;7.30;;;16.60;99.90;;;;;;5029801;28;20049;-45
2021/07/31 09:42:38;;;;;;;12.90;6.80;;;16.60;99.90;;;;;;5029734;28;20141;-43
2021/07/31 09:45:06;;;;;;;13.63;4.95;;;16.40;99.90;;;;;;5028870;28;20045;-44
2021/07/31 09:47:33;;;;;;;10.18;5.28;;;16.40;99.90;;;;;;5028675;28;20045;-44
2021/07/31 09:49:59;;;;;;;10.45;5.10;;;16.50;99.90;;;;;;5029442;28;20063;-42
2021/07/31 09:52:27;;;;;;;11.57;6.20;;;16.80;99.90;;;;;;5029793;28;20107;-43
2021/07/31 09:54:57;;;;;;;11.48;5.40;;;17.50;99.90;;;;;;5029561;28;20069;-43
2021/07/31 09:57:28;;;;;;;8.57;4.38;;;18.00;99.90;;;;;;5029052;28;20107;-44
2021/07/31 09:59:59;;;;;;;12.25;4.40;;;18.30;99.90;;;;;;5029383;28;20050;-43
2021/07/31 10:02:27;;;;;;;9.15;3.72;;;18.40;99.90;;;;;;5028821;28;20053;-43
2021/07/31 10:04:54;;;;;;;40.40;35.17;;;18.30;99.90;;;;;;5036038;28;20057;-44
2021/07/31 10:07:20;;;;;;;13.63;4.57;;;18.70;99.90;;;;;;5028714;28;20057;-45
2021/07/31 10:09:53;;;;;;;16.42;9.55;;;18.50;99.90;;;;;;5029128;28;20137;-44
2021/07/31 10:12:26;;;;;;;10.60;5.13;;;18.40;99.90;;;;;;5046456;28;20057;-45
2021/07/31 10:14:53;;;;;;;23.60;18.88;;;18.00;99.90;;;;;;5029462;28;20050;-45
2021/07/31 10:17:28;;;;;;;12.07;4.50;;;17.80;99.90;;;;;;5034016;28;20064;-45
2021/07/31 10:19:54;;;;;;;11.75;4.47;;;17.70;99.90;;;;;;5028849;28;20222;-45
2021/07/31 10:22:43;;;;;;;10.90;5.47;;;18.30;99.90;;;;;;5037616;28;20118;-46
2021/07/31 10:25:17;;;;;;;7.80;3.67;;;19.00;99.90;;;;;;5038015;28;20053;-45
2021/07/31 10:27:45;;;;;;;9.50;3.50;;;19.90;99.90;;;;;;5021273;28;20725;-48
2021/07/31 10:30:33;;;;;;;8.55;3.38;;;20.10;99.90;;;;;;5027345;28;20311;-48
2021/07/31 10:33:00;;;;;;;9.50;3.13;;;20.50;99.90;;;;;;5027886;28;20089;-52
2021/07/31 10:35:39;;;;;;;7.43;3.15;;;20.60;99.90;;;;;;5028755;28;20045;-48
2021/07/31 10:38:09;;;;;;;10.70;2.72;;;20.80;99.90;;;;;;5028088;28;20534;-45
2021/07/31 10:40:40;;;;;;;10.20;6.22;;;20.40;99.90;;;;;;5030544;28;20052;-47
2021/07/31 10:43:07;;;;;;;;;;;20.70;99.90;;;;;;5016216;28;20081;-48
2021/07/31 10:45:34;;;;;;;11.43;3.47;;;20.90;99.90;;;;;;5020488;28;19965;-47
2021/07/31 10:48:29;;;;;;;8.65;3.00;;;20.90;99.90;;;;;;5029195;28;20391;-51
2021/07/31 10:50:55;;;;;;;8.30;2.05;;;21.30;99.90;;;;;;5027528;28;20065;-47
2021/07/31 10:53:42;;;;;;;7.82;3.80;;;21.60;99.90;;;;;;5030694;28;20045;-49
2021/07/31 10:56:08;;;;;;;8.55;2.05;;;21.90;99.90;;;;;;5028805;28;20132;-45
2021/07/31 10:58:34;;;;;;;7.93;2.38;;;22.00;99.90;;;;;;5030729;28;20061;-44
2021/07/31 11:01:22;;;;;;;5.78;2.63;;;22.10;99.90;;;;;;5027975;28;20052;-48
2021/07/31 11:03:52;;;;;;;6.63;2.67;;;22.40;99.90;;;;;;5029220;28;20045;-49
2021/07/31 11:06:19;;;;;;;10.43;3.03;;;22.40;99.90;;;;;;5030268;28;20072;-47
2021/07/31 11:08:57;;;;;;;12.35;3.90;;;22.20;99.90;;;;;;5036843;28;20454;-47
2021/07/31 11:11:25;;;;;;;8.85;2.60;;;22.50;99.90;;;;;;5039825;28;20045;-52
2021/07/31 11:13:53;;;;;;;7.70;3.33;;;22.50;99.90;;;;;;5044050;28;20088;-48
2021/07/31 11:16:26;;;;;;;9.60;3.05;;;23.10;99.90;;;;;;5021149;28;20057;-49
2021/07/31 11:18:58;;;;;;;10.13;2.70;;;23.10;99.90;;;;;;5016879;28;20042;-48
2021/07/31 11:21:28;;;;;;;10.38;2.95;;;22.40;99.90;;;;;;5036216;28;20121;-46
2021/07/31 11:24:09;;;;;;;7.40;2.92;;;21.70;99.90;;;;;;5035955;28;20060;-48
2021/07/31 11:26:47;;;;;;;9.35;3.33;;;21.00;99.90;;;;;;5030636;28;20053;-52
2021/07/31 11:29:22;;;;;;;6.03;2.58;;;20.30;99.90;;;;;;5029193;28;20045;-49
2021/07/31 11:32:12;;;;;;;5.22;2.90;;;20.30;99.90;;;;;;5021459;28;20072;-48
2021/07/31 11:34:42;;;;;;;9.07;2.85;;;21.10;99.90;;;;;;5028172;28;20069;-51
2021/07/31 11:37:09;;;;;;;7.70;3.00;;;22.00;99.90;;;;;;5029814;28;20095;-49
2021/07/31 11:39:36;;;;;;;7.63;2.90;;;21.70;99.90;;;;;;5027718;28;20176;-45
2021/07/31 11:42:03;;;;;;;7.10;3.00;;;21.10;99.90;;;;;;5028755;28;20049;-47
2021/07/31 11:44:35;;;;;;;7.55;3.20;;;20.60;99.90;;;;;;5044565;28;20060;-47
2021/07/31 11:47:01;;;;;;;;;;;20.40;99.90;;;;;;5032801;28;20038;-53
2021/07/31 11:49:37;;;;;;;8.02;3.63;;;20.10;99.90;;;;;;5029646;28;19921;-50
2021/07/31 11:52:08;;;;;;;8.48;3.72;;;20.30;99.90;;;;;;5030065;28;20060;-45
2021/07/31 11:54:39;;;;;;;6.97;2.90;;;19.70;99.90;;;;;;5044387;28;20147;-46
2021/07/31 11:57:06;;;;;;;7.35;4.03;;;18.80;99.90;;;;;;5028461;28;20136;-46
2021/07/31 11:59:36;;;;;;;7.95;4.30;;;18.40;99.90;;;;;;5027159;28;20053;-45
2021/07/31 12:02:06;;;;;;;8.60;4.80;;;18.20;99.90;;;;;;5028130;28;20061;-47
2021/07/31 12:04:51;;;;;;;9.13;5.07;;;18.20;99.90;;;;;;5027675;28;20493;-45
2021/07/31 12:07:21;;;;;;;9.32;4.65;;;18.20;99.90;;;;;;5026640;28;20180;-45
2021/07/31 12:10:10;;;;;;;9.70;4.38;;;18.90;99.90;;;;;;5028104;28;20152;-44
2021/07/31 12:12:45;;;;;;;10.80;5.20;;;19.90;99.90;;;;;;5028093;28;20077;-45
2021/07/31 12:15:28;;;;;;;7.75;3.83;;;20.70;99.90;;;;;;5028461;28;20502;-46
2021/07/31 12:18:16;;;;;;;11.88;4.40;;;20.50;99.90;;;;;;5028801;28;20123;-43
2021/07/31 12:20:43;;;;;;;5.97;3.05;;;20.70;99.90;;;;;;4985309;28;20042;-46
2021/07/31 12:23:11;;;;;;;5.38;3.60;;;21.40;99.90;;;;;;4984629;28;20112;-43
2021/07/31 12:25:55;;;;;;;6.90;3.58;;;21.90;99.90;;;;;;4985300;28;20049;-51
2021/07/31 12:28:39;;;;;;;7.50;3.83;;;22.10;99.90;;;;;;5027751;28;20059;-44
2021/07/31 12:31:30;;;;;;;7.22;3.45;;;21.70;99.90;;;;;;5022718;28;20052;-46
2021/07/31 12:34:09;;;;;;;6.93;4.55;;;20.90;99.90;;;;;;5026676;28;20053;-46
2021/07/31 12:36:55;;;;;;;9.30;7.22;;;20.50;99.90;;;;;;5027947;28;20045;-47
2021/07/31 12:39:21;;;;;;;9.57;5.18;;;20.10;99.90;;;;;;5022729;28;20050;-48
2021/07/31 12:41:47;;;;;;;5.72;3.40;;;19.70;99.90;;;;;;5027784;28;20053;-47
2021/07/31 12:44:13;;;;;;;7.53;4.13;;;19.90;99.90;;;;;;5026785;28;20455;-47
2021/07/31 12:46:39;;;;;;;9.07;6.30;;;20.60;99.90;;;;;;5034097;28;20068;-47
2021/07/31 12:49:05;;;;;;;7.50;4.60;;;20.40;99.90;;;;;;5046467;28;20514;-48
2021/07/31 12:51:31;;;;;;;10.52;8.80;;;20.40;99.90;;;;;;5031334;28;20069;-46
2021/07/31 12:53:57;;;;;;;5.15;2.80;;;20.30;99.90;;;;;;5031479;28;20050;-48
2021/07/31 12:56:24;;;;;;;7.18;3.22;;;20.00;99.90;;;;;;5036119;28;20048;-48